Time;durP1;ratioP1;P1;durP2;ratioP2;P2;SDS_P1;SDS_P2;PMS_P1;PMS_P2;Temp;Humidity;BMP_temperature;BMP_pressure;BME280_temperature;BME280_humidity;BME280_pressure;Samples;Min_cycle;Max_cycle;Signal;HPM_P1;HPM_P2
2023/04/27 00:02:19;;;;;;;;;;;;;;;4.18;74.35;102020.31;5037066;28;1953;-78
2023/04/27 00:04:44;;;;;;;;;;;;;;;4.15;74.65;102021.28;5037329;28;1211;-76
2023/04/27 00:07:10;;;;;;;;;;;;;;;4.16;74.83;102038.34;5030366;28;1116;-77
2023/04/27 00:09:35;;;;;;;;;;;;;;;4.15;74.71;102046.94;5029165;28;1326;-75
2023/04/27 00:12:00;;;;;;;;;;;;;;;4.13;74.76;102042.75;5037855;28;1096;-76
2023/04/27 00:14:27;;;;;;;;;;;;;;;4.11;74.96;102040.22;5039955;28;1022;-76
2023/04/27 00:16:52;;;;;;;;;;;;;;;4.11;74.96;102039.41;5033535;28;1302;-76
2023/04/27 00:19:17;;;;;;;;;;;;;;;4.09;75.10;102031.75;5033563;28;1064;-76
2023/04/27 00:21:43;;;;;;;;;;;;;;;4.09;75.02;102041.19;5036607;28;1083;-76
2023/04/27 00:24:08;;;;;;;;;;;;;;;4.07;75.15;102038.69;5030916;28;1955;-76
2023/04/27 00:26:33;;;;;;;;;;;;;;;4.06;75.52;102042.13;5030890;28;1133;-75
2023/04/27 00:28:58;;;;;;;;;;;;;;;4.05;75.48;102040.44;5040041;28;1002;-75
2023/04/27 00:31:23;;;;;;;;;;;;;;;4.03;75.34;102042.25;5031380;28;1087;-77
2023/04/27 00:33:49;;;;;;;;;;;;;;;4.02;75.52;102045.72;5032910;28;1330;-78
2023/04/27 00:36:14;;;;;;;;;;;;;;;4.00;75.94;102042.34;5035197;28;1112;-77
2023/04/27 00:38:40;;;;;;;;;;;;;;;3.99;75.81;102040.66;5032581;28;1136;-76
2023/04/27 00:41:06;;;;;;;;;;;;;;;3.99;75.87;102043.22;5036573;28;1192;-76
2023/04/27 00:43:31;;;;;;;;;;;;;;;3.97;75.63;102038.16;5038102;28;1898;-76
2023/04/27 00:45:57;;;;;;;;;;;;;;;3.95;75.86;102033.94;5035786;28;1001;-75
2023/04/27 00:48:23;;;;;;;;;;;;;;;3.94;75.77;102032.28;5037523;28;1562;-75
2023/04/27 00:50:48;;;;;;;;;;;;;;;3.92;76.12;102049.47;5040477;28;1561;-75
2023/04/27 00:53:14;;;;;;;;;;;;;;;3.92;76.07;102044.34;5043217;28;1382;-76
2023/04/27 00:55:39;;;;;;;;;;;;;;;3.89;76.49;102041.88;5040609;28;1196;-75
2023/04/27 00:58:04;;;;;;;;;;;;;;;3.85;76.20;102046.28;5032057;28;1645;-76
2023/04/27 01:00:30;;;;;;;;;;;;;;;3.82;76.56;102042.97;5037290;28;1180;-76
2023/04/27 01:02:55;;;;;;;;;;;;;;;3.78;76.47;102041.38;5037082;28;1898;-76
2023/04/27 01:05:20;;;;;;;;;;;;;;;3.75;76.71;102042.34;5036942;28;1370;-76
2023/04/27 01:07:46;;;;;;;;;;;;;;;3.73;76.64;102039.84;5030003;28;1030;-78
2023/04/27 01:10:11;;;;;;;;;;;;;;;3.72;76.73;102032.16;5033753;28;1286;-75
2023/04/27 01:12:36;;;;;;;;;;;;;;;3.69;76.85;102035.69;5038000;28;1070;-75
2023/04/27 01:15:01;;;;;;;;;;;;;;;3.69;76.63;102033.13;5036390;28;1031;-75
2023/04/27 01:17:27;;;;;;;;;;;;;;;3.69;76.62;102028.00;5038453;28;1160;-77
2023/04/27 01:19:54;;;;;;;;;;;;;;;3.68;76.92;102036.59;5035322;28;1074;-75
2023/04/27 01:22:20;;;;;;;;;;;;;;;3.69;76.86;102027.16;5034672;28;1898;-74
2023/04/27 01:24:45;;;;;;;;;;;;;;;3.66;77.02;102025.50;5039004;28;1171;-76
2023/04/27 01:27:11;;;;;;;;;;;;;;;3.65;77.41;102026.41;5031631;28;945;-77
2023/04/27 01:29:36;;;;;;;;;;;;;;;3.65;77.37;102028.97;5038843;28;1146;-75
2023/04/27 01:32:01;;;;;;;;;;;;;;;3.64;77.44;102035.00;5036649;28;1137;-76
2023/04/27 01:34:27;;;;;;;;;;;;;;;3.63;77.71;102033.31;5031099;28;1285;-76
2023/04/27 01:36:52;;;;;;;;;;;;;;;3.61;77.31;102035.13;5041053;28;1539;-75
2023/04/27 01:39:17;;;;;;;;;;;;;;;3.58;77.79;102030.06;5046511;28;1298;-75
2023/04/27 01:41:42;;;;;;;;;;;;;;;3.55;77.48;102024.19;5033165;28;1110;-76
2023/04/27 01:44:07;;;;;;;;;;;;;;;3.52;78.03;102030.28;5033349;28;1945;-75
2023/04/27 01:46:33;;;;;;;;;;;;;;;3.51;77.86;102025.22;5028558;28;1144;-75
2023/04/27 01:48:58;;;;;;;;;;;;;;;3.48;77.85;102028.69;5031857;28;1047;-77
2023/04/27 01:51:23;;;;;;;;;;;;;;;3.47;78.19;102019.31;5032027;28;1128;-76
2023/04/27 01:53:48;;;;;;;;;;;;;;;3.47;78.19;102027.84;5032097;28;953;-78
2023/04/27 01:56:13;;;;;;;;;;;;;;;3.45;78.27;102013.41;5036403;28;1365;-75
2023/04/27 01:58:39;;;;;;;;;;;;;;;3.43;78.17;102016.00;5050063;28;1248;-75
2023/04/27 02:01:04;;;;;;;;;;;;;;;3.42;78.61;102010.94;5030666;28;1159;-75
2023/04/27 02:03:29;;;;;;;;;;;;;;;3.40;78.68;102015.28;5043887;28;1909;-76
2023/04/27 02:05:54;;;;;;;;;;;;;;;3.40;78.45;102013.56;5038931;28;984;-76
2023/04/27 02:08:20;;;;;;;;;;;;;;;3.43;78.64;102010.03;5037329;28;1187;-74
2023/04/27 02:10:45;;;;;;;;;;;;;;;3.42;78.75;102005.81;5039485;28;1064;-77
2023/04/27 02:13:10;;;;;;;;;;;;;;;3.38;79.01;102007.66;5036588;28;1086;-75
2023/04/27 02:15:35;;;;;;;;;;;;;;;3.38;79.17;102006.78;5031323;28;1172;-76
2023/04/27 02:18:02;;;;;;;;;;;;;;;3.33;79.14;102009.53;5031398;28;1193;-78
2023/04/27 02:20:28;;;;;;;;;;;;;;;3.31;78.89;102010.44;5034892;28;1208;-75
2023/04/27 02:22:54;;;;;;;;;;;;;;;3.28;79.25;102000.31;5030652;28;1965;-76
2023/04/27 02:25:19;;;;;;;;;;;;;;;3.27;78.97;102009.72;5030015;28;1096;-75
2023/04/27 02:27:45;;;;;;;;;;;;;;;3.26;79.56;102007.19;5036926;28;1266;-76
2023/04/27 02:30:11;;;;;;;;;;;;;;;3.24;79.50;102003.84;5029841;28;1200;-76
2023/04/27 02:32:36;;;;;;;;;;;;;;;3.23;79.92;102002.19;5036926;28;1068;-78
2023/04/27 02:35:02;;;;;;;;;;;;;;;3.22;79.17;102000.50;5031852;28;1063;-76
2023/04/27 02:37:27;;;;;;;;;;;;;;;3.18;79.51;101995.47;5038257;28;1128;-76
2023/04/27 02:39:52;;;;;;;;;;;;;;;3.14;79.66;101998.16;5036577;28;1316;-76
2023/04/27 02:42:18;;;;;;;;;;;;;;;3.11;79.51;102003.41;5037827;28;1080;-75
2023/04/27 02:44:43;;;;;;;;;;;;;;;3.09;79.39;101994.91;5042932;28;1955;-75
2023/04/27 02:47:08;;;;;;;;;;;;;;;3.05;79.14;101999.31;5040326;28;1126;-75
2023/04/27 02:49:34;;;;;;;;;;;;;;;3.03;79.29;101995.94;5030887;28;1132;-76
2023/04/27 02:51:59;;;;;;;;;;;;;;;3.02;80.08;101998.56;5031732;28;1037;-77
2023/04/27 02:54:24;;;;;;;;;;;;;;;3.01;80.10;101994.31;5039175;28;1144;-76
2023/04/27 02:56:50;;;;;;;;;;;;;;;3.00;79.68;101990.94;5032297;28;1137;-75
2023/04/27 02:59:15;;;;;;;;;;;;;;;2.99;79.56;101994.38;5033365;28;1143;-77
2023/04/27 03:01:40;;;;;;;;;;;;;;;2.98;79.42;102000.38;5036288;28;1192;-75
2023/04/27 03:04:05;;;;;;;;;;;;;;;2.96;79.52;101994.47;5037335;28;1960;-76
2023/04/27 03:06:31;;;;;;;;;;;;;;;2.94;79.73;102001.38;5042514;28;1175;-76
2023/04/27 03:08:56;;;;;;;;;;;;;;;2.92;79.95;102009.13;5031930;28;1017;-78
2023/04/27 03:11:21;;;;;;;;;;;;;;;2.90;80.18;102004.91;5040149;28;1220;-76
2023/04/27 03:13:46;;;;;;;;;;;;;;;2.89;80.17;101998.09;5029575;28;963;-74
2023/04/27 03:16:11;;;;;;;;;;;;;;;2.90;80.65;101994.66;5043353;28;1147;-75
2023/04/27 03:18:37;;;;;;;;;;;;;;;2.91;80.43;101993.75;5039416;28;1429;-75
2023/04/27 03:21:06;;;;;;;;;;;;;;;2.90;80.79;101999.78;5037742;28;1235;-78
2023/04/27 03:23:32;;;;;;;;;;;;;;;2.89;81.05;102003.22;5031650;28;1898;-75
2023/04/27 03:25:57;;;;;;;;;;;;;;;2.88;80.28;102001.56;5044106;28;1208;-75
2023/04/27 03:28:22;;;;;;;;;;;;;;;2.87;80.49;102012.69;5037633;28;1181;-75
2023/04/27 03:30:47;;;;;;;;;;;;;;;2.86;80.42;102013.56;5029160;28;1073;-76
2023/04/27 03:33:13;;;;;;;;;;;;;;;2.85;80.94;102014.44;5029626;28;1164;-75
2023/04/27 03:35:38;;;;;;;;;;;;;;;2.83;80.65;102009.38;5031496;28;1164;-75
2023/04/27 03:38:03;;;;;;;;;;;;;;;2.83;80.57;102013.66;5032083;28;1453;-77
2023/04/27 03:40:28;;;;;;;;;;;;;;;2.80;80.57;102013.75;5041896;28;949;-75
2023/04/27 03:42:53;;;;;;;;;;;;;;;2.79;81.30;102022.31;5035353;28;1893;-78
2023/04/27 03:45:21;;;;;;;;;;;;;;;2.78;81.42;102018.94;5036048;28;1223;-74
2023/04/27 03:47:46;;;;;;;;;;;;;;;2.76;81.29;102018.13;5035203;28;1191;-75
2023/04/27 03:50:11;;;;;;;;;;;;;;;2.77;81.82;102014.69;5039746;28;1074;-75
2023/04/27 03:52:36;;;;;;;;;;;;;;;2.76;81.76;102017.31;5028831;28;966;-75
2023/04/27 03:55:02;;;;;;;;;;;;;;;2.73;81.43;102012.25;5039557;28;1187;-77
2023/04/27 03:57:27;;;;;;;;;;;;;;;2.73;81.52;102014.81;5034367;28;1254;-75
2023/04/27 03:59:52;;;;;;;;;;;;;;;2.73;82.04;102017.38;5033468;28;1068;-77
2023/04/27 04:02:17;;;;;;;;;;;;;;;2.71;81.54;102009.75;5031292;28;1159;-77
2023/04/27 04:04:42;;;;;;;;;;;;;;;2.70;81.89;102017.50;5041074;28;1922;-75
2023/04/27 04:07:08;;;;;;;;;;;;;;;2.70;82.13;102018.31;5033943;28;1273;-75
2023/04/27 04:09:33;;;;;;;;;;;;;;;2.69;82.23;102016.63;5027084;28;1044;-76
2023/04/27 04:11:58;;;;;;;;;;;;;;;2.67;82.26;102021.81;5035740;28;1120;-75
2023/04/27 04:14:23;;;;;;;;;;;;;;;2.67;82.05;102019.25;5028561;28;977;-75
2023/04/27 04:16:49;;;;;;;;;;;;;;;2.67;82.24;102024.38;5029550;28;1278;-76
2023/04/27 04:19:14;;;;;;;;;;;;;;;2.67;82.40;102023.53;5034971;28;1164;-75
2023/04/27 04:21:39;;;;;;;;;;;;;;;2.64;82.29;102019.34;5027739;28;1229;-76
2023/04/27 04:24:04;;;;;;;;;;;;;;;2.63;82.41;102020.19;5027101;28;1890;-78
2023/04/27 04:26:30;;;;;;;;;;;;;;;2.63;82.35;102022.75;5040419;28;1216;-78
2023/04/27 04:28:55;;;;;;;;;;;;;;;2.59;82.59;102018.63;5034518;28;1586;-75
2023/04/27 04:31:21;;;;;;;;;;;;;;;2.59;82.24;102031.44;5033799;28;1159;-76
2023/04/27 04:33:47;;;;;;;;;;;;;;;2.60;82.61;102033.13;5027549;28;1196;-75
2023/04/27 04:36:12;;;;;;;;;;;;;;;2.60;82.77;102038.25;5026368;28;1373;-76
2023/04/27 04:38:38;;;;;;;;;;;;;;;2.61;82.67;102039.91;5032703;28;1287;-76
2023/04/27 04:41:03;;;;;;;;;;;;;;;2.59;82.23;102036.56;5037166;28;1129;-75
2023/04/27 04:43:28;;;;;;;;;;;;;;;2.57;82.78;102038.31;5031553;28;1917;-75
2023/04/27 04:45:53;;;;;;;;;;;;;;;2.57;82.57;102043.44;5034821;28;1314;-75
2023/04/27 04:48:19;;;;;;;;;;;;;;;2.57;82.86;102048.56;5043725;28;1180;-75
2023/04/27 04:50:44;;;;;;;;;;;;;;;2.55;82.96;102045.22;5030750;28;1444;-75
2023/04/27 04:53:09;;;;;;;;;;;;;;;2.56;83.04;102054.56;5028244;28;1108;-75
2023/04/27 04:55:35;;;;;;;;;;;;;;;2.58;82.66;102045.13;5030116;28;1082;-78
2023/04/27 04:58:00;;;;;;;;;;;;;;;2.59;83.07;102044.25;5034025;28;1145;-74
2023/04/27 05:00:25;;;;;;;;;;;;;;;2.61;82.83;102045.03;5028033;28;1231;-75
2023/04/27 05:02:51;;;;;;;;;;;;;;;2.60;83.18;102048.47;5027080;28;1965;-77
2023/04/27 05:05:16;;;;;;;;;;;;;;;2.60;83.08;102060.44;5032113;28;1306;-75
2023/04/27 05:07:42;;;;;;;;;;;;;;;2.63;83.66;102050.09;5038727;28;1090;-75
2023/04/27 05:10:07;;;;;;;;;;;;;;;2.65;83.70;102056.88;5037615;28;1161;-75
2023/04/27 05:12:32;;;;;;;;;;;;;;;2.68;82.91;102061.06;5031616;28;1098;-75
2023/04/27 05:14:57;;;;;;;;;;;;;;;2.72;83.08;102061.81;5027817;28;1053;-77
2023/04/27 05:17:23;;;;;;;;;;;;;;;2.73;83.71;102059.22;5028207;28;1207;-76
2023/04/27 05:19:48;;;;;;;;;;;;;;;2.73;83.89;102061.75;5029683;28;1287;-75
2023/04/27 05:22:13;;;;;;;;;;;;;;;2.74;83.43;102054.91;5033116;28;1082;-76
2023/04/27 05:24:38;;;;;;;;;;;;;;;2.75;83.68;102054.03;5038442;28;1894;-75
2023/04/27 05:27:03;;;;;;;;;;;;;;;2.80;83.83;102049.63;5034363;28;1056;-74
2023/04/27 05:29:29;;;;;;;;;;;;;;;2.81;83.46;102048.72;5037972;28;1187;-75
2023/04/27 05:31:54;;;;;;;;;;;;;;;2.84;83.48;102056.34;5032001;28;1334;-78
2023/04/27 05:34:19;;;;;;;;;;;;;;;2.86;83.83;102059.69;5036241;28;1096;-75
2023/04/27 05:36:46;;;;;;;;;;;;;;;2.88;83.28;102058.78;5032256;28;1180;-75
2023/04/27 05:39:11;;;;;;;;;;;;;;;2.92;83.71;102054.38;5032278;28;1176;-75
2023/04/27 05:41:36;;;;;;;;;;;;;;;2.96;83.52;102058.53;5032239;28;1262;-76
2023/04/27 05:44:02;;;;;;;;;;;;;;;2.98;84.27;102058.47;5037297;28;1902;-76
2023/04/27 05:46:27;;;;;;;;;;;;;;;3.01;83.62;102064.34;5035803;28;1144;-78
2023/04/27 05:48:52;;;;;;;;;;;;;;;3.05;83.99;102065.94;5037064;28;1303;-75
2023/04/27 05:51:17;;;;;;;;;;;;;;;3.10;83.89;102061.53;5026551;28;1068;-77
2023/04/27 05:53:42;;;;;;;;;;;;;;;3.17;83.62;102069.88;5034630;28;1132;-76
2023/04/27 05:56:10;;;;;;;;;;;;;;;3.23;83.54;102059.41;5027099;28;1152;-76
2023/04/27 05:58:35;;;;;;;;;;;;;;;3.29;83.36;102063.50;5031695;28;1085;-78
2023/04/27 06:01:02;;;;;;;;;;;;;;;3.31;83.58;102056.59;5037019;28;1522;-75
2023/04/27 06:03:27;;;;;;;;;;;;;;;3.38;83.73;102063.22;5043604;28;1902;-76
2023/04/27 06:05:56;;;;;;;;;;;;;;;3.42;83.56;102054.53;5038207;28;1121;-76
2023/04/27 06:08:21;;;;;;;;;;;;;;;3.45;83.00;102059.59;5034105;28;1006;-76
2023/04/27 06:10:46;;;;;;;;;;;;;;;3.50;83.52;102047.47;5041567;28;1175;-77
2023/04/27 06:13:12;;;;;;;;;;;;;;;3.56;82.96;102057.50;5042965;28;1112;-76
2023/04/27 06:15:37;;;;;;;;;;;;;;;3.62;82.88;102057.31;5029131;28;1248;-78
2023/04/27 06:18:02;;;;;;;;;;;;;;;3.70;82.79;102055.31;5027998;28;1123;-77
2023/04/27 06:20:27;;;;;;;;;;;;;;;3.78;82.45;102056.78;5034279;28;1334;-75
2023/04/27 06:22:53;;;;;;;;;;;;;;;3.86;82.60;102060.78;5028093;28;1951;-76
2023/04/27 06:25:18;;;;;;;;;;;;;;;3.94;82.48;102057.94;5048541;28;1215;-76
2023/04/27 06:27:43;;;;;;;;;;;;;;;4.01;82.62;102067.09;5031308;28;1169;-78
2023/04/27 06:30:08;;;;;;;;;;;;;;;4.09;81.86;102062.56;5031820;28;1679;-79
2023/04/27 06:32:34;;;;;;;;;;;;;;;4.16;81.82;102058.88;5031386;28;1418;-78
2023/04/27 06:34:59;;;;;;;;;;;;;;;4.25;81.36;102063.72;5042411;28;1687;-78
2023/04/27 06:37:24;;;;;;;;;;;;;;;4.34;81.54;102066.84;5030093;28;1454;-78
2023/04/27 06:39:50;;;;;;;;;;;;;;;4.42;81.19;102064.84;5034633;28;1238;-78
2023/04/27 06:42:15;;;;;;;;;;;;;;;4.52;80.40;102071.31;5041226;28;1208;-79
2023/04/27 06:44:40;;;;;;;;;;;;;;;4.61;80.66;102070.97;5042257;28;1921;-78
2023/04/27 06:47:05;;;;;;;;;;;;;;;4.67;79.84;102060.47;5038346;28;1098;-79
2023/04/27 06:49:31;;;;;;;;;;;;;;;4.75;79.97;102058.44;5037168;28;1288;-79
2023/04/27 06:51:56;;;;;;;;;;;;;;;4.85;79.78;102058.94;5039973;28;1286;-79
2023/04/27 06:54:21;;;;;;;;;;;;;;;4.94;79.37;102052.63;5036775;28;1188;-79
2023/04/27 06:56:46;;;;;;;;;;;;;;;5.04;79.51;102059.06;5029858;28;1190;-80
2023/04/27 06:59:12;;;;;;;;;;;;;;;5.14;79.61;102067.28;5034280;28;1087;-79
2023/04/27 07:01:37;;;;;;;;;;;;;;;5.21;79.05;102051.53;5042743;28;1136;-79
2023/04/27 07:04:02;;;;;;;;;;;;;;;5.31;78.51;102063.13;5031910;28;1977;-80
2023/04/27 07:06:27;;;;;;;;;;;;;;;5.41;78.84;102057.63;5038299;28;1076;-79
2023/04/27 07:08:53;;;;;;;;;;;;;;;5.52;78.58;102060.63;5035903;28;1092;-79
2023/04/27 07:11:18;;;;;;;;;;;;;;;5.61;78.15;102049.94;5043850;28;1220;-79
2023/04/27 07:13:43;;;;;;;;;;;;;;;5.75;76.89;102052.78;5036908;28;1049;-79
2023/04/27 07:16:08;;;;;;;;;;;;;;;5.82;76.58;102059.34;5037498;28;1088;-79
2023/04/27 07:18:33;;;;;;;;;;;;;;;5.92;75.71;102061.56;5035263;28;1200;-80
2023/04/27 07:20:59;;;;;;;;;;;;;;;6.01;75.94;102063.75;5028908;28;1088;-79
2023/04/27 07:23:24;;;;;;;;;;;;;;;6.13;76.20;102065.78;5029547;28;1902;-80
2023/04/27 07:25:49;;;;;;;;;;;;;;;6.27;75.84;102063.47;5034678;28;1282;-79
2023/04/27 07:28:15;;;;;;;;;;;;;;;6.39;75.67;102065.50;5040715;28;1207;-80
2023/04/27 07:30:41;;;;;;;;;;;;;;;6.48;73.83;102069.44;5035318;28;1047;-80
2023/04/27 07:33:06;;;;;;;;;;;;;;;6.53;74.47;102067.44;5042517;28;1092;-79
2023/04/27 07:35:32;;;;;;;;;;;;;;;6.63;74.80;102062.72;5031327;28;1128;-79
2023/04/27 07:38:00;;;;;;;;;;;;;;;6.70;74.26;102058.97;5030375;28;1043;-79
2023/04/27 07:40:26;;;;;;;;;;;;;;;6.74;74.22;102050.19;5038701;28;1069;-80
2023/04/27 07:42:51;;;;;;;;;;;;;;;6.76;72.98;102053.53;5032839;28;1897;-79
2023/04/27 07:45:16;;;;;;;;;;;;;;;6.85;72.10;102060.84;5038793;28;1350;-80
2023/04/27 07:47:42;;;;;;;;;;;;;;;6.98;73.86;102063.69;5038220;28;1381;-79
2023/04/27 07:50:08;;;;;;;;;;;;;;;7.11;71.31;102069.09;5048842;28;1212;-79
2023/04/27 07:52:33;;;;;;;;;;;;;;;7.16;70.41;102062.81;5043219;28;1200;-79
2023/04/27 07:54:59;;;;;;;;;;;;;;;7.20;69.48;102053.19;5035385;28;1255;-80
2023/04/27 07:57:24;;;;;;;;;;;;;;;7.25;71.07;102058.97;5048793;28;1398;-79
2023/04/27 07:59:50;;;;;;;;;;;;;;;7.32;72.12;102057.75;5037782;28;1315;-79
2023/04/27 08:02:15;;;;;;;;;;;;;;;7.36;71.08;102061.88;5027491;28;1314;-79
2023/04/27 08:04:40;;;;;;;;;;;;;;;7.38;71.44;102062.63;5035716;28;1898;-79
2023/04/27 08:07:05;;;;;;;;;;;;;;;7.45;67.91;102066.59;5028120;28;1301;-79
2023/04/27 08:09:30;;;;;;;;;;;;;;;7.55;69.05;102073.88;5032365;28;1128;-79
2023/04/27 08:11:56;;;;;;;;;;;;;;;7.63;69.47;102067.44;5031919;28;1505;-79
2023/04/27 08:14:21;;;;;;;;;;;;;;;7.67;69.96;102073.28;5030661;28;1236;-79
2023/04/27 08:16:47;;;;;;;;;;;;;;;7.70;67.29;102073.97;5030749;28;1184;-79
2023/04/27 08:19:12;;;;;;;;;;;;;;;7.74;64.35;102074.63;5030951;28;1137;-79
2023/04/27 08:21:37;;;;;;;;;;;;;;;7.81;66.79;102070.88;5029474;28;1106;-80
2023/04/27 08:24:03;;;;;;;;;;;;;;;7.88;68.29;102073.97;5030631;28;1894;-79
2023/04/27 08:26:28;;;;;;;;;;;;;;;7.90;65.46;102075.53;5026987;28;1253;-80
2023/04/27 08:28:56;;;;;;;;;;;;;;;7.90;64.63;102075.53;5033116;28;1195;-80
2023/04/27 08:31:21;;;;;;;;;;;;;;;7.93;65.74;102067.66;5035180;28;1183;-79
2023/04/27 08:33:46;;;;;;;;;;;;;;;8.03;67.17;102077.50;5026626;28;1191;-79
2023/04/27 08:36:12;;;;;;;;;;;;;;;8.14;65.80;102072.63;5031060;28;1199;-79
2023/04/27 08:38:37;;;;;;;;;;;;;;;8.21;63.68;102068.84;5028344;28;1473;-79
2023/04/27 08:41:02;;;;;;;;;;;;;;;8.19;63.37;102063.72;5038941;28;1152;-80
2023/04/27 08:43:31;;;;;;;;;;;;;;;8.23;64.30;102059.25;5030452;28;1957;-80
2023/04/27 08:45:56;;;;;;;;;;;;;;;8.31;62.32;102064.00;5037417;28;1321;-79
2023/04/27 08:48:22;;;;;;;;;;;;;;;8.36;62.54;102052.53;5032847;28;1140;-80
2023/04/27 08:50:49;;;;;;;;;;;;;;;8.41;62.99;102045.38;5027391;28;1089;-80
2023/04/27 08:53:18;;;;;;;;;;;;;;;8.48;61.33;102049.31;5036506;28;1211;-80
2023/04/27 08:55:43;;;;;;;;;;;;;;;8.54;59.91;102061.06;5033940;28;1261;-79
2023/04/27 08:58:08;;;;;;;;;;;;;;;8.56;60.54;102053.25;5024863;28;1346;-79
2023/04/27 09:00:38;;;;;;;;;;;;;;;8.49;60.33;102058.75;5033622;28;1290;-79
2023/04/27 09:03:04;;;;;;;;;;;;;;;8.50;57.00;102055.25;5027069;28;1951;-79
2023/04/27 09:05:29;;;;;;;;;;;;;;;8.59;59.15;102053.06;5030482;28;1228;-80
2023/04/27 09:07:59;;;;;;;;;;;;;;;8.57;60.01;102060.09;5031087;28;1351;-79
2023/04/27 09:10:24;;;;;;;;;;;;;;;8.61;59.41;102059.03;5030923;28;1144;-79
2023/04/27 09:12:59;;;;;;;;;;;;;;;8.63;58.47;102049.41;5026967;28;1044;-79
2023/04/27 09:15:24;;;;;;;;;;;;;;;8.69;58.54;102046.50;5036966;28;1184;-79
2023/04/27 09:17:54;;;;;;;;;;;;;;;8.77;56.92;102049.50;5034262;28;1100;-80
2023/04/27 09:20:19;;;;;;;;;;;;;;;8.83;59.09;102046.59;5034794;28;1368;-79
2023/04/27 09:22:46;;;;;;;;;;;;;;;8.97;59.93;102046.66;5027063;28;1902;-80
2023/04/27 09:25:28;;;;;;;;;;;;;;;8.99;58.84;102052.56;5031728;28;1323;-79
2023/04/27 09:27:53;;;;;;;;;;;;;;;9.11;58.95;102042.47;5033707;28;1208;-79
2023/04/27 09:30:19;;;;;;;;;;;;;;;9.19;58.79;102050.66;5032527;28;1394;-79
2023/04/27 09:32:48;;;;;;;;;;;;;;;9.31;60.19;102042.19;5033102;28;1181;-79
2023/04/27 09:35:19;;;;;;;;;;;;;;;9.42;57.23;102042.41;5035444;28;1473;-79
2023/04/27 09:37:48;;;;;;;;;;;;;;;9.42;55.18;102039.81;5034219;28;1134;-80
2023/04/27 09:40:14;;;;;;;;;;;;;;;9.47;54.75;102037.81;5035351;28;1478;-79
2023/04/27 09:42:40;;;;;;;;;;;;;;;9.52;56.69;102040.97;5031295;28;1898;-79
2023/04/27 09:45:06;;;;;;;;;;;;;;;9.55;56.05;102033.00;5036571;28;1133;-79
2023/04/27 09:47:32;;;;;;;;;;;;;;;9.58;54.40;102029.41;5039532;28;1196;-79
2023/04/27 09:49:58;;;;;;;;;;;;;;;9.57;54.98;102023.38;5029088;28;1235;-79
2023/04/27 09:52:25;;;;;;;;;;;;;;;9.63;55.43;102023.94;5025190;28;1470;-79
2023/04/27 09:54:52;;;;;;;;;;;;;;;9.87;56.09;102030.28;5037217;28;1323;-79
2023/04/27 09:57:17;;;;;;;;;;;;;;;9.70;51.87;102033.88;5029471;28;1084;-79
2023/04/27 09:59:52;;;;;;;;;;;;;;;9.69;53.55;102026.19;5034005;28;1321;-80
2023/04/27 10:02:18;;;;;;;;;;;;;;;9.73;54.86;102028.50;5036883;28;1100;-79
2023/04/27 10:04:49;;;;;;;;;;;;;;;9.83;54.91;102028.81;5045364;28;1961;-80
2023/04/27 10:07:14;;;;;;;;;;;;;;;9.93;54.67;102029.94;5035641;28;1140;-79
2023/04/27 10:09:41;;;;;;;;;;;;;;;10.03;52.47;102031.03;5045446;28;1322;-79
2023/04/27 10:12:16;;;;;;;;;;;;;;;10.08;53.48;102028.16;5034235;28;1267;-79
2023/04/27 10:14:48;;;;;;;;;;;;;;;10.15;50.57;102023.44;5034173;28;1138;-79
2023/04/27 10:17:14;;;;;;;;;;;;;;;10.18;53.42;102023.25;5039584;28;1078;-79
2023/04/27 10:19:40;;;;;;;;;;;;;;;10.29;52.15;102032.09;5031485;28;1370;-79
2023/04/27 10:22:08;;;;;;;;;;;;;;;10.40;53.65;102022.81;5047908;28;1391;-79
2023/04/27 10:24:40;;;;;;;;;;;;;;;10.49;54.53;102030.00;5051355;28;1894;-79
2023/04/27 10:27:10;;;;;;;;;;;;;;;10.56;53.39;102029.56;5031558;28;1188;-80
2023/04/27 10:29:41;;;;;;;;;;;;;;;10.64;50.88;102027.31;5034108;28;1184;-79
2023/04/27 10:32:26;;;;;;;;;;;;;;;10.69;51.66;102028.78;5039989;28;1246;-79
2023/04/27 10:35:02;;;;;;;;;;;;;;;10.67;51.00;102020.25;5029894;28;1160;-79
2023/04/27 10:37:37;;;;;;;;;;;;;;;10.70;51.26;102022.66;5059584;28;1255;-80
2023/04/27 10:40:04;;;;;;;;;;;;;;;10.76;49.64;102024.88;5039944;28;1801;-80
2023/04/27 10:42:29;;;;;;;;;;;;;;;10.85;52.04;102026.91;5042848;28;1268;-80
2023/04/27 10:44:57;;;;;;;;;;;;;;;10.87;50.12;102025.03;5035413;28;1890;-80
2023/04/27 10:47:23;;;;;;;;;;;;;;;10.87;49.75;102022.44;5030617;28;1009;-80
2023/04/27 10:49:51;;;;;;;;;;;;;;;10.88;51.05;102024.09;5042328;28;1041;-81
2023/04/27 10:52:16;;;;;;;;;;;;;;;10.96;49.15;102016.66;5032931;28;1060;-79
2023/04/27 10:54:44;;;;;;;;;;;;;;;11.00;47.83;102014.69;5052605;28;1412;-79
2023/04/27 10:57:09;;;;;;;;;;;;;;;11.02;50.02;102015.44;5032807;28;1267;-79
2023/04/27 10:59:46;;;;;;;;;;;;;;;11.15;49.71;102017.13;5034589;28;997;-79
2023/04/27 11:02:11;;;;;;;;;;;;;;;11.23;50.44;102003.63;5036573;28;1196;-80
2023/04/27 11:04:37;;;;;;;;;;;;;;;11.33;49.23;101999.50;5041930;28;1898;-79
2023/04/27 11:07:03;;;;;;;;;;;;;;;11.40;50.00;101994.72;5035571;28;1188;-80
2023/04/27 11:09:28;;;;;;;;;;;;;;;11.51;50.79;101996.63;5033658;28;1153;-80
2023/04/27 11:11:54;;;;;;;;;;;;;;;11.56;50.30;102005.78;5036791;28;1278;-81
2023/04/27 11:14:20;;;;;;;;;;;;;;;11.49;49.06;101995.91;5032774;28;1272;-79
2023/04/27 11:16:46;;;;;;;;;;;;;;;11.54;50.41;101988.63;5029590;28;1151;-80
2023/04/27 11:19:11;;;;;;;;;;;;;;;11.69;50.71;101996.22;5035444;28;1137;-79
2023/04/27 11:21:36;;;;;;;;;;;;;;;11.79;49.24;101987.81;5036610;28;1148;-79
2023/04/27 11:24:02;;;;;;;;;;;;;;;11.85;49.39;101984.81;5041279;28;1886;-80
2023/04/27 11:26:28;;;;;;;;;;;;;;;11.88;49.46;101980.25;5036733;28;1205;-80
2023/04/27 11:28:56;;;;;;;;;;;;;;;11.80;45.34;101982.50;5037377;28;1256;-79
2023/04/27 11:31:21;;;;;;;;;;;;;;;11.67;47.86;101966.91;5034911;28;1171;-80
2023/04/27 11:33:50;;;;;;;;;;;;;;;11.77;48.74;101966.28;5031305;28;1422;-79
2023/04/27 11:36:16;;;;;;;;;;;;;;;11.89;48.89;101957.69;5037675;28;1523;-79
2023/04/27 11:38:42;;;;;;;;;;;;;;;12.02;49.06;101955.88;5036457;28;1466;-81
2023/04/27 11:41:07;;;;;;;;;;;;;;;12.19;49.27;101952.94;5042441;28;1212;-79
2023/04/27 11:43:33;;;;;;;;;;;;;;;12.32;49.97;101957.25;5030849;28;1947;-79
2023/04/27 11:46:05;;;;;;;;;;;;;;;12.39;47.33;101953.31;5033339;28;1450;-79
2023/04/27 11:48:31;;;;;;;;;;;;;;;12.43;47.67;101949.53;5034408;28;1529;-80
2023/04/27 11:50:58;;;;;;;;;;;;;;;12.45;48.58;101952.88;5041288;28;1141;-80
2023/04/27 11:53:31;;;;;;;;;;;;;;;12.51;47.89;101956.81;5040605;28;1012;-79
2023/04/27 11:55:58;;;;;;;;;;;;;;;12.60;48.47;101946.53;5056225;28;1258;-80
2023/04/27 11:58:23;;;;;;;;;;;;;;;12.58;47.28;101948.44;5030248;28;1187;-80
2023/04/27 12:00:48;;;;;;;;;;;;;;;12.68;48.05;101939.03;5035460;28;1219;-80
2023/04/27 12:03:13;;;;;;;;;;;;;;;12.77;46.11;101937.50;5039126;28;1949;-79
2023/04/27 12:05:48;;;;;;;;;;;;;;;12.86;47.59;101936.84;5029381;28;1142;-80
2023/04/27 12:08:14;;;;;;;;;;;;;;;12.96;43.80;101936.97;5028778;28;1196;-80
2023/04/27 12:10:39;;;;;;;;;;;;;;;12.88;44.58;101941.94;5040344;28;1510;-79
2023/04/27 12:13:05;;;;;;;;;;;;;;;12.82;45.26;101939.78;5039263;28;1235;-80
2023/04/27 12:15:30;;;;;;;;;;;;;;;12.88;46.86;101939.34;5031662;28;1173;-80
2023/04/27 12:17:55;;;;;;;;;;;;;;;13.03;46.53;101943.41;5029926;28;1148;-80
2023/04/27 12:20:21;;;;;;;;;;;;;;;13.11;47.00;101935.84;5033185;28;1178;-80
2023/04/27 12:22:46;;;;;;;;;;;;;;;13.25;45.52;101929.66;5041198;28;1898;-80
2023/04/27 12:25:12;;;;;;;;;;;;;;;13.32;46.35;101923.03;5034361;28;1125;-79
2023/04/27 12:27:38;;;;;;;;;;;;;;;13.34;43.70;101930.72;5039494;28;1192;-80
2023/04/27 12:30:03;;;;;;;;;;;;;;;13.24;42.24;101931.41;5042210;28;1185;-80
2023/04/27 12:32:29;;;;;;;;;;;;;;;13.16;43.11;101933.75;5038003;28;1327;-80
2023/04/27 12:34:54;;;;;;;;;;;;;;;13.10;41.40;101929.00;5037417;28;1194;-80
2023/04/27 12:37:20;;;;;;;;;;;;;;;13.03;42.64;101917.38;5028685;28;1223;-80
2023/04/27 12:39:45;;;;;;;;;;;;;;;13.07;42.72;101926.59;5028951;28;1195;-80
2023/04/27 12:42:11;;;;;;;;;;;;;;;13.09;43.08;101914.31;5047686;28;1498;-80
2023/04/27 12:44:36;;;;;;;;;;;;;;;13.05;42.46;101915.47;5037993;28;1903;-80
2023/04/27 12:47:02;;;;;;;;;;;;;;;13.13;42.55;101912.28;5033441;28;1098;-80
2023/04/27 12:49:28;;;;;;;;;;;;;;;13.05;41.22;101918.09;5042892;28;1239;-80